Terminal Aerodrome Forecast
Issued by NWS

Home | Current Version | Previous Version | Text Only | Print | Product List | Glossary Off
Versions: 1 2 3 4 5 6 7 8 9 10 11 12 13 14 15 16 17 18 19 20

085
FTUS43 KGRB 241724
TAFAUW
TAF
KAUW 241724Z 2418/2518 13011KT P6SM SCT020 BKN045
     FM242200 13008KT P6SM BKN035
     FM250600 12007KT P6SM OVC030
     FM251000 13007KT P6SM VCSH SCT012 OVC030
      TEMPO 2510/2514 5SM -SHRA BR BKN012
     FM251400 15008KT 4SM -SHRA BR SCT004 OVC008
      TEMPO 2514/2518 2SM TSRA BR BKN004CB=

USA.gov is the U.S. government's official web portal to all federal, state and local government web resources and services.